Time;durP1;ratioP1;P1;durP2;ratioP2;P2;SDS_P1;SDS_P2;PMS_P1;PMS_P2;Temp;Humidity;BMP_temperature;BMP_pressure;BME280_temperature;BME280_humidity;BME280_pressure;Samples;Min_cycle;Max_cycle;Signal;HPM_P1;HPM_P2
2023/02/16 00:00:05;;;;;;;15.03;13.17;;;3.10;68.40;;;;;;5054714;28;20543;-65
2023/02/16 00:02:31;;;;;;;13.90;11.17;;;3.10;80.00;;;;;;5054970;28;20694;-65
2023/02/16 00:04:56;;;;;;;12.70;11.40;;;3.00;68.70;;;;;;5054788;28;20174;-65
2023/02/16 00:07:22;;;;;;;11.83;10.60;;;2.90;88.70;;;;;;5053636;28;20284;-65
2023/02/16 00:09:47;;;;;;;15.30;10.53;;;2.90;88.50;;;;;;5054522;28;20184;-65
2023/02/16 00:15:22;;;;;;;15.07;10.97;;;2.80;95.50;;;;;;5055142;28;20617;-64
2023/02/16 00:17:47;;;;;;;20.07;11.47;;;2.80;99.00;;;;;;5054712;28;20212;-65
2023/02/16 00:20:17;;;;;;;12.17;10.87;;;2.80;99.90;;;;;;5054393;28;20266;-66
2023/02/16 00:22:42;;;;;;;12.13;11.07;;;2.80;99.90;;;;;;5054605;28;20622;-64
2023/02/16 00:25:09;;;;;;;12.07;10.97;;;2.70;99.90;;;;;;5054480;28;20174;-65
2023/02/16 00:27:35;;;;;;;15.70;13.13;;;2.70;99.90;;;;;;5054633;28;20191;-65
2023/02/16 00:30:02;;;;;;;16.03;11.87;;;2.70;99.90;;;;;;5054335;28;20254;-65
2023/02/16 00:32:27;;;;;;;13.60;12.10;;;2.70;99.90;;;;;;5054592;28;20266;-65
2023/02/16 00:34:53;;;;;;;12.77;11.20;;;2.60;99.90;;;;;;5054183;28;20670;-65
2023/02/16 00:37:18;;;;;;;18.37;12.07;;;2.70;99.90;;;;;;5054322;28;20245;-64
2023/02/16 00:39:44;;;;;;;16.37;10.73;;;2.70;99.90;;;;;;5053950;28;20258;-65
2023/02/16 00:42:19;;;;;;;13.17;11.40;;;2.80;99.90;;;;;;5054392;28;20540;-65
2023/02/16 00:44:54;;;;;;;15.57;11.93;;;2.80;99.90;;;;;;5054110;28;20228;-64
2023/02/16 00:47:29;;;;;;;13.13;11.83;;;2.80;99.90;;;;;;5054066;28;20217;-65
2023/02/16 00:49:54;;;;;;;21.43;11.83;;;2.80;99.90;;;;;;5053851;28;20175;-65
2023/02/16 00:52:29;;;;;;;13.43;11.67;;;2.90;99.90;;;;;;5054274;28;20237;-64
2023/02/16 00:54:57;;;;;;;13.13;11.83;;;2.90;99.90;;;;;;5053899;28;20174;-65
2023/02/16 00:57:23;;;;;;;13.03;11.67;;;2.80;99.90;;;;;;5053556;28;20256;-65
2023/02/16 00:59:57;;;;;;;13.50;12.17;;;2.80;99.90;;;;;;5052367;28;20202;-65
2023/02/16 01:02:23;;;;;;;11.47;10.17;;;2.70;99.90;;;;;;5054031;28;20228;-64
2023/02/16 01:04:49;;;;;;;17.17;12.73;;;2.70;99.90;;;;;;5053766;28;20171;-64
2023/02/16 01:12:45;;;;;;;13.87;12.30;;;2.70;99.90;;;;;;5053646;28;20273;-64
2023/02/16 01:15:14;;;;;;;14.03;12.63;;;2.70;99.90;;;;;;5053661;28;20637;-65
2023/02/16 01:17:40;;;;;;;14.67;12.80;;;2.60;99.90;;;;;;5053697;28;20183;-64
2023/02/16 01:20:32;;;;;;;14.73;11.37;;;2.60;99.90;;;;;;5053298;28;20190;-65
2023/02/16 01:22:57;;;;;;;16.30;13.17;;;2.70;99.90;;;;;;5049721;28;20255;-64
2023/02/16 01:25:23;;;;;;;16.53;12.37;;;2.70;99.90;;;;;;5053615;28;20218;-64
2023/02/16 01:27:49;;;;;;;23.43;13.13;;;2.60;99.90;;;;;;5053385;28;20167;-64
2023/02/16 01:30:20;;;;;;;14.83;11.83;;;2.60;99.90;;;;;;5053257;28;20167;-65
2023/02/16 01:32:50;;;;;;;13.60;12.30;;;2.60;99.90;;;;;;5053295;28;20175;-64
2023/02/16 01:35:36;;;;;;;14.40;10.73;;;2.60;99.90;;;;;;5053474;28;20205;-65
2023/02/16 01:38:02;;;;;;;14.20;11.00;;;2.60;99.90;;;;;;5052721;28;20198;-63
2023/02/16 01:40:39;;;;;;;12.10;10.47;;;2.60;99.90;;;;;;5052998;28;20236;-63
2023/02/16 01:43:46;;;;;;;14.70;12.03;;;2.50;99.90;;;;;;5052940;28;20208;-63
2023/02/16 01:46:17;;;;;;;11.67;10.17;;;2.50;99.90;;;;;;4972548;28;20281;-63
2023/02/16 01:48:42;;;;;;;17.83;12.00;;;2.40;99.90;;;;;;4971967;28;20192;-63
2023/02/16 01:51:34;;;;;;;12.93;11.53;;;2.40;99.90;;;;;;5013375;28;20191;-63
2023/02/16 01:54:20;;;;;;;16.07;12.37;;;2.30;99.90;;;;;;5052963;28;20286;-63
2023/02/16 01:56:54;;;;;;;15.93;14.23;;;2.20;99.90;;;;;;5052704;28;20191;-63
2023/02/16 01:59:42;;;;;;;13.67;12.23;;;2.10;99.90;;;;;;5052725;28;20174;-63
2023/02/16 02:02:26;;;;;;;13.73;12.20;;;2.10;99.90;;;;;;5051960;28;20600;-64
2023/02/16 02:07:48;;;;;;;14.17;12.73;;;2.00;99.90;;;;;;5052717;28;20682;-63
2023/02/16 02:10:36;;;;;;;16.17;12.70;;;1.90;99.90;;;;;;5051586;28;20192;-63
2023/02/16 02:13:07;;;;;;;18.60;13.20;;;1.90;99.90;;;;;;5052469;28;20175;-63
2023/02/16 02:15:34;;;;;;;12.90;11.63;;;1.90;99.90;;;;;;5052576;28;20194;-63
2023/02/16 02:17:59;;;;;;;21.37;12.40;;;1.90;99.90;;;;;;5052461;28;20186;-63
2023/02/16 02:23:58;;;;;;;17.37;12.23;;;2.00;99.90;;;;;;5052555;28;20205;-63
2023/02/16 02:26:33;;;;;;;14.93;11.43;;;2.00;99.90;;;;;;5052461;28;20198;-63
2023/02/16 02:29:04;;;;;;;13.27;11.90;;;2.00;99.90;;;;;;5052161;28;20227;-63
2023/02/16 02:31:51;;;;;;;12.60;11.40;;;2.00;99.90;;;;;;5052133;28;20202;-63
2023/02/16 02:34:17;;;;;;;19.17;13.77;;;1.90;99.90;;;;;;5052303;28;20175;-63
2023/02/16 02:36:55;;;;;;;16.27;12.30;;;1.80;99.90;;;;;;5052183;28;20194;-63
2023/02/16 02:39:49;;;;;;;15.73;13.47;;;1.80;99.90;;;;;;5050741;28;20640;-63
2023/02/16 02:42:30;;;;;;;18.37;12.87;;;1.70;99.90;;;;;;5049709;28;20191;-63
2023/02/16 02:45:11;;;;;;;11.90;10.77;;;1.70;99.90;;;;;;5051946;28;20166;-63
2023/02/16 02:47:43;;;;;;;19.67;14.00;;;1.70;99.90;;;;;;5052124;28;20202;-63
2023/02/16 02:50:27;;;;;;;14.57;12.57;;;1.70;99.90;;;;;;5051706;28;20254;-63
2023/02/16 02:53:00;;;;;;;14.37;12.77;;;1.70;99.90;;;;;;5051731;28;20175;-63
2023/02/16 03:00:58;;;;;;;16.10;12.57;;;1.60;99.90;;;;;;5050309;28;20721;-63
2023/02/16 03:03:48;;;;;;;17.90;12.67;;;1.60;99.90;;;;;;5051796;28;20215;-63
2023/02/16 03:06:27;;;;;;;13.57;11.77;;;1.50;99.90;;;;;;5051654;28;20576;-63
2023/02/16 03:08:59;;;;;;;12.53;11.23;;;1.50;99.90;;;;;;5051606;28;20178;-63
2023/02/16 03:14:36;;;;;;;16.00;13.43;;;1.50;99.90;;;;;;5051969;28;20666;-63
2023/02/16 03:31:08;;;;;;;21.13;13.53;;;1.50;99.90;;;;;;5050959;28;20177;-64
2023/02/16 03:33:35;;;;;;;14.60;12.87;;;1.50;99.90;;;;;;5051534;28;20185;-63
2023/02/16 03:36:01;;;;;;;12.93;11.63;;;1.50;99.90;;;;;;5051285;28;20198;-64
2023/02/16 03:38:27;;;;;;;14.37;12.17;;;1.50;99.90;;;;;;5051700;28;20206;-64
2023/02/16 03:40:53;;;;;;;11.93;10.83;;;1.50;99.90;;;;;;5050797;28;20570;-63
2023/02/16 03:43:18;;;;;;;14.20;10.53;;;1.50;99.90;;;;;;5051341;28;20237;-63
2023/02/16 03:45:44;;;;;;;12.83;11.20;;;1.60;99.90;;;;;;5051140;28;20241;-64
2023/02/16 03:48:10;;;;;;;16.27;14.30;;;1.50;99.90;;;;;;5051251;28;20175;-66
2023/02/16 03:50:36;;;;;;;15.33;12.03;;;1.50;99.90;;;;;;5050993;28;20193;-64
2023/02/16 03:53:08;;;;;;;13.90;12.63;;;1.50;99.90;;;;;;5050960;28;20186;-63
2023/02/16 03:55:42;;;;;;;13.40;12.07;;;1.50;99.90;;;;;;5051193;28;20285;-63
2023/02/16 03:58:10;;;;;;;14.07;11.97;;;1.50;99.90;;;;;;5051223;28;20257;-63
2023/02/16 04:00:36;;;;;;;14.87;12.50;;;1.50;99.90;;;;;;5049898;28;20179;-63
2023/02/16 04:03:03;;;;;;;14.50;11.43;;;1.50;99.90;;;;;;5050820;28;20598;-62
2023/02/16 04:05:29;;;;;;;16.17;12.33;;;1.40;99.90;;;;;;5051083;28;20243;-63
2023/02/16 04:07:55;;;;;;;15.83;13.47;;;1.40;99.90;;;;;;5051140;28;20250;-63
2023/02/16 04:10:22;;;;;;;15.43;12.63;;;1.40;99.90;;;;;;5050770;28;20640;-63
2023/02/16 04:12:48;;;;;;;13.03;11.63;;;1.30;99.90;;;;;;5051269;28;20178;-62
2023/02/16 04:15:21;;;;;;;14.60;12.20;;;1.30;99.90;;;;;;5050916;28;20189;-63
2023/02/16 04:17:47;;;;;;;17.30;13.37;;;1.20;99.90;;;;;;5051041;28;20574;-63
2023/02/16 04:20:16;;;;;;;13.53;11.40;;;1.10;99.90;;;;;;5050791;28;20185;-63
2023/02/16 04:22:42;;;;;;;14.07;12.20;;;1.10;99.90;;;;;;5050882;28;20287;-63
2023/02/16 04:25:08;;;;;;;14.03;12.37;;;1.10;99.90;;;;;;5050579;28;20163;-63
2023/02/16 04:27:35;;;;;;;14.53;12.80;;;1.00;99.90;;;;;;5050996;28;20266;-63
2023/02/16 04:30:00;;;;;;;13.73;11.93;;;1.00;99.90;;;;;;5050515;28;20179;-63
2023/02/16 04:32:26;;;;;;;14.50;12.43;;;1.10;99.90;;;;;;5050193;28;20197;-63
2023/02/16 04:34:51;;;;;;;30.23;13.17;;;1.10;99.90;;;;;;5054256;28;20182;-63
2023/02/16 04:37:17;;;;;;;12.83;11.53;;;1.10;99.90;;;;;;5054188;28;20285;-63
2023/02/16 04:39:43;;;;;;;14.97;13.37;;;1.10;99.90;;;;;;5053960;28;20266;-63
2023/02/16 04:42:08;;;;;;;19.00;12.73;;;1.10;99.90;;;;;;5054208;28;20175;-63
2023/02/16 04:44:34;;;;;;;13.17;11.83;;;1.10;99.90;;;;;;5054253;28;20637;-63
2023/02/16 04:46:59;;;;;;;15.90;10.67;;;1.10;99.90;;;;;;5053897;28;20218;-63
2023/02/16 04:49:25;;;;;;;14.30;12.77;;;1.10;99.90;;;;;;5053871;28;20195;-62
2023/02/16 04:51:51;;;;;;;14.30;11.63;;;1.10;99.90;;;;;;5052837;28;20197;-66
2023/02/16 04:54:16;;;;;;;12.57;11.10;;;1.10;99.90;;;;;;5054197;28;20179;-63
2023/02/16 04:56:46;;;;;;;18.17;13.00;;;1.10;99.90;;;;;;5054027;28;20199;-63
2023/02/16 04:59:12;;;;;;;16.20;12.40;;;1.10;99.90;;;;;;5053636;28;20696;-63
2023/02/16 05:01:38;;;;;;;21.70;12.80;;;1.20;99.90;;;;;;5053230;28;20171;-63
2023/02/16 05:04:04;;;;;;;12.67;11.20;;;1.10;99.90;;;;;;5053731;28;20790;-63
2023/02/16 05:06:29;;;;;;;17.33;13.27;;;1.10;99.90;;;;;;5053790;28;20197;-63
2023/02/16 05:08:55;;;;;;;16.00;13.03;;;1.10;99.90;;;;;;5053625;28;20186;-63
2023/02/16 05:16:49;;;;;;;12.43;11.43;;;1.00;99.90;;;;;;5053655;28;20260;-63
2023/02/16 05:19:14;;;;;;;14.00;11.33;;;1.00;99.90;;;;;;5053322;28;20552;-62
2023/02/16 05:21:40;;;;;;;16.23;11.27;;;1.10;99.90;;;;;;5053520;28;20175;-63
2023/02/16 05:24:10;;;;;;;11.17;10.20;;;1.10;99.90;;;;;;5053357;28;20209;-64
2023/02/16 05:26:38;;;;;;;14.67;12.47;;;1.10;99.90;;;;;;5053519;28;20647;-64
2023/02/16 05:29:04;;;;;;;12.10;10.77;;;1.10;99.90;;;;;;5053278;28;20206;-64
2023/02/16 05:31:30;;;;;;;13.30;11.77;;;1.20;99.90;;;;;;5053219;28;20175;-63
2023/02/16 05:33:55;;;;;;;15.17;12.73;;;1.20;99.90;;;;;;5053358;28;20178;-64
2023/02/16 05:36:21;;;;;;;16.23;12.63;;;1.20;99.90;;;;;;5053210;28;20202;-64
2023/02/16 05:38:47;;;;;;;16.80;12.73;;;1.20;99.90;;;;;;5053126;28;20174;-64
2023/02/16 05:41:22;;;;;;;22.37;14.23;;;1.20;99.90;;;;;;5052759;28;20179;-63
2023/02/16 05:43:52;;;;;;;17.23;12.60;;;1.20;99.90;;;;;;5053030;28;20225;-63
2023/02/16 05:46:19;;;;;;;15.03;13.37;;;1.20;99.90;;;;;;5053040;28;20217;-63
2023/02/16 05:48:45;;;;;;;15.00;12.93;;;1.20;99.90;;;;;;5053010;28;20175;-63
2023/02/16 05:51:10;;;;;;;20.70;13.20;;;1.10;99.90;;;;;;5052536;28;20255;-63
2023/02/16 05:53:36;;;;;;;14.53;13.03;;;1.10;99.90;;;;;;5053035;28;20269;-63
2023/02/16 05:56:01;;;;;;;17.20;13.57;;;1.10;99.90;;;;;;5053058;28;20198;-63
2023/02/16 05:58:27;;;;;;;18.17;14.13;;;1.20;99.90;;;;;;5052942;28;20181;-63
2023/02/16 06:00:53;;;;;;;19.23;15.17;;;1.20;99.90;;;;;;5050647;28;20563;-63
2023/02/16 06:03:18;;;;;;;15.50;13.33;;;1.20;99.90;;;;;;5052738;28;20249;-63
2023/02/16 06:05:44;;;;;;;14.53;13.13;;;1.30;99.90;;;;;;5051476;28;20789;-63
2023/02/16 06:08:10;;;;;;;21.33;14.17;;;1.30;99.90;;;;;;5052800;28;20166;-63
2023/02/16 06:10:35;;;;;;;15.07;12.07;;;1.40;99.90;;;;;;5052429;28;20175;-62
2023/02/16 06:13:01;;;;;;;15.27;13.80;;;1.50;99.90;;;;;;5052466;28;20174;-64
2023/02/16 06:15:26;;;;;;;14.57;12.63;;;1.60;99.90;;;;;;5052463;28;20194;-63
2023/02/16 06:17:52;;;;;;;22.83;13.00;;;1.60;99.90;;;;;;5052469;28;20697;-63
2023/02/16 06:20:17;;;;;;;18.60;12.13;;;1.70;99.90;;;;;;5052191;28;20179;-63
2023/02/16 06:22:43;;;;;;;15.60;13.00;;;1.80;99.90;;;;;;5052244;28;20304;-63
2023/02/16 06:25:09;;;;;;;19.67;14.37;;;1.80;99.90;;;;;;5050815;28;20595;-64
2023/02/16 06:27:35;;;;;;;27.57;13.10;;;1.90;99.90;;;;;;5052312;28;20254;-63
2023/02/16 06:30:01;;;;;;;17.20;12.30;;;2.00;99.90;;;;;;5051941;28;20182;-63
2023/02/16 06:32:27;;;;;;;22.83;14.73;;;2.10;99.90;;;;;;5052188;28;20163;-63
2023/02/16 06:34:52;;;;;;;20.43;12.20;;;2.10;99.90;;;;;;5051977;28;20190;-63
2023/02/16 06:37:18;;;;;;;16.67;12.47;;;2.20;99.90;;;;;;5051923;28;20222;-63
2023/02/16 06:39:44;;;;;;;22.13;13.23;;;2.20;99.90;;;;;;5051825;28;20602;-63
2023/02/16 06:42:09;;;;;;;17.77;14.20;;;2.20;99.90;;;;;;5051979;28;20183;-63
2023/02/16 06:44:36;;;;;;;16.43;13.03;;;2.30;99.90;;;;;;5051945;28;20203;-63
2023/02/16 06:47:01;;;;;;;24.37;15.47;;;2.30;99.90;;;;;;5051717;28;20206;-62
2023/02/16 06:49:27;;;;;;;13.70;12.30;;;2.30;99.90;;;;;;5051677;28;20178;-63
2023/02/16 06:51:52;;;;;;;15.07;12.73;;;2.30;99.90;;;;;;5051813;28;20181;-63
2023/02/16 06:54:18;;;;;;;15.90;13.83;;;2.40;99.90;;;;;;5051897;28;20632;-62
2023/02/16 06:56:44;;;;;;;16.27;13.70;;;2.40;99.90;;;;;;5051497;28;20199;-62
2023/02/16 06:59:11;;;;;;;19.20;13.57;;;2.50;99.90;;;;;;5051374;28;20188;-63
2023/02/16 07:01:36;;;;;;;21.63;13.37;;;2.50;99.90;;;;;;5050809;28;20179;-63
2023/02/16 07:04:02;;;;;;;17.47;13.10;;;2.60;99.90;;;;;;5051608;28;20568;-63
2023/02/16 07:06:28;;;;;;;14.57;12.60;;;2.60;99.90;;;;;;5050309;28;20202;-63
2023/02/16 07:08:54;;;;;;;23.23;15.70;;;2.60;99.90;;;;;;5051570;28;20246;-63
2023/02/16 07:11:20;;;;;;;24.30;14.60;;;2.60;99.90;;;;;;5051291;28;20201;-63
2023/02/16 07:13:46;;;;;;;13.73;12.33;;;2.60;99.90;;;;;;5051676;28;20224;-63
2023/02/16 07:16:12;;;;;;;20.13;14.27;;;2.70;99.90;;;;;;5051581;28;20198;-63
2023/02/16 07:18:38;;;;;;;13.63;11.90;;;2.70;99.90;;;;;;5051560;28;20229;-63
2023/02/16 07:21:05;;;;;;;19.17;13.03;;;2.70;99.90;;;;;;5049674;28;20178;-63
2023/02/16 07:23:31;;;;;;;13.27;11.90;;;2.80;99.90;;;;;;5051714;28;20202;-63
2023/02/16 07:25:57;;;;;;;18.37;12.37;;;2.80;99.90;;;;;;5051359;28;20240;-63
2023/02/16 07:28:22;;;;;;;22.20;15.60;;;2.80;99.90;;;;;;5051439;28;20170;-63
2023/02/16 07:30:48;;;;;;;18.80;12.30;;;2.90;99.90;;;;;;5050942;28;20182;-63
2023/02/16 07:33:14;;;;;;;29.03;13.60;;;2.90;99.90;;;;;;5051515;28;20170;-63
2023/02/16 07:35:40;;;;;;;19.70;15.30;;;2.90;99.90;;;;;;5051534;28;20191;-63
2023/02/16 07:38:06;;;;;;;21.07;14.10;;;3.00;99.90;;;;;;5051271;28;20530;-65
2023/02/16 07:40:32;;;;;;;18.17;13.97;;;3.00;99.90;;;;;;5051053;28;20177;-63
2023/02/16 07:43:02;;;;;;;25.47;15.27;;;3.10;99.90;;;;;;5051141;28;20206;-63
2023/02/16 07:45:28;;;;;;;20.03;14.53;;;3.10;99.90;;;;;;5051593;28;20340;-63
2023/02/16 07:47:54;;;;;;;22.63;15.97;;;3.10;99.90;;;;;;5051220;28;20178;-63
2023/02/16 07:50:20;;;;;;;20.63;15.30;;;3.20;99.90;;;;;;5051287;28;20175;-63
2023/02/16 07:52:45;;;;;;;26.93;18.53;;;3.20;99.90;;;;;;5051178;28;20183;-63
2023/02/16 07:55:11;;;;;;;19.47;15.37;;;3.30;99.90;;;;;;5050958;28;20189;-63
2023/02/16 07:57:38;;;;;;;17.43;15.57;;;3.40;99.90;;;;;;5051141;28;20167;-63
2023/02/16 08:00:06;;;;;;;18.10;14.53;;;3.50;99.90;;;;;;5049778;28;20597;-63
2023/02/16 08:02:33;;;;;;;24.83;16.37;;;3.50;99.90;;;;;;5051089;28;20186;-63
2023/02/16 08:04:59;;;;;;;19.00;16.70;;;3.60;99.90;;;;;;5051192;28;20630;-62
2023/02/16 08:07:26;;;;;;;19.23;16.50;;;3.60;99.90;;;;;;5051352;28;20199;-63
2023/02/16 08:09:51;;;;;;;18.47;15.17;;;3.70;99.90;;;;;;5054638;28;20175;-63
2023/02/16 08:12:18;;;;;;;18.80;15.57;;;3.80;99.90;;;;;;5054868;28;20198;-63
2023/02/16 08:14:45;;;;;;;19.47;14.17;;;3.90;99.90;;;;;;5054862;28;20174;-63
2023/02/16 08:17:11;;;;;;;20.33;15.63;;;4.00;99.90;;;;;;5054606;28;20251;-66
2023/02/16 08:19:37;;;;;;;21.00;14.00;;;4.10;99.90;;;;;;5054534;28;20175;-63
2023/02/16 08:22:04;;;;;;;20.53;13.87;;;4.20;99.90;;;;;;5054656;28;20253;-63
2023/02/16 08:24:30;;;;;;;16.37;13.47;;;4.20;99.90;;;;;;5054559;28;20206;-62
2023/02/16 08:26:56;;;;;;;17.57;13.20;;;4.30;99.90;;;;;;5054252;28;20199;-63
2023/02/16 08:29:22;;;;;;;22.17;14.57;;;4.30;99.90;;;;;;5054205;28;20526;-63
2023/02/16 08:31:49;;;;;;;20.23;16.87;;;4.30;99.90;;;;;;5054490;28;20175;-63
2023/02/16 08:34:16;;;;;;;19.53;13.37;;;4.40;95.70;;;;;;5054540;28;20178;-64
2023/02/16 08:36:44;;;;;;;22.40;15.10;;;4.40;84.70;;;;;;5054569;28;20660;-63
2023/02/16 08:39:15;;;;;;;30.17;16.37;;;4.50;92.10;;;;;;5054021;28;20175;-63
2023/02/16 08:41:42;;;;;;;22.27;15.17;;;4.70;99.90;;;;;;5054380;28;20225;-63
2023/02/16 08:44:08;;;;;;;21.93;15.73;;;4.90;99.90;;;;;;5054288;28;20202;-63
2023/02/16 08:46:38;;;;;;;22.83;15.27;;;5.00;88.50;;;;;;5054153;28;20683;-63
2023/02/16 08:49:05;;;;;;;25.40;16.47;;;5.20;53.90;;;;;;5054282;28;20202;-63
2023/02/16 08:51:34;;;;;;;26.50;16.50;;;5.30;13.30;;;;;;5054002;28;20171;-63
2023/02/16 08:54:01;;;;;;;25.17;14.80;;;5.50;18.80;;;;;;5054067;28;20588;-63
2023/02/16 08:56:31;;;;;;;22.73;14.97;;;5.70;11.50;;;;;;5054038;28;20205;-63
2023/02/16 08:58:58;;;;;;;24.33;14.90;;;5.80;1.00;;;;;;5054108;28;20175;-63
2023/02/16 09:01:24;;;;;;;20.13;15.27;;;6.10;1.00;;;;;;5052351;28;20171;-63
2023/02/16 09:03:51;;;;;;;22.30;14.40;;;6.30;1.00;;;;;;5053887;28;20217;-63
2023/02/16 09:06:21;;;;;;;22.90;15.37;;;6.70;1.00;;;;;;5054036;28;20187;-63
2023/02/16 09:08:55;;;;;;;29.47;15.80;;;7.10;1.00;;;;;;5053859;28;20357;-63
2023/02/16 09:11:22;;;;;;;27.57;16.60;;;7.50;1.00;;;;;;5053532;28;20170;-66
2023/02/16 09:13:47;;;;;;;24.57;16.03;;;8.10;1.00;;;;;;5053727;28;20175;-64
2023/02/16 09:16:17;;;;;;;22.77;15.10;;;8.70;1.00;;;;;;5053728;28;20526;-64
2023/02/16 09:18:43;;;;;;;22.43;14.67;;;9.40;99.90;;;;;;5053245;28;20216;-64
2023/02/16 09:21:18;;;;;;;18.87;13.43;;;10.10;1.00;;;;;;5053250;28;20171;-64
2023/02/16 09:23:47;;;;;;;16.73;12.57;;;10.50;1.00;;;;;;5053531;28;20202;-64
2023/02/16 09:26:16;;;;;;;14.43;10.97;;;10.80;1.00;;;;;;5053389;28;20205;-64
2023/02/16 09:28:43;;;;;;;13.43;11.73;;;10.70;1.00;;;;;;5053554;28;20171;-64
2023/02/16 09:31:10;;;;;;;15.57;12.27;;;10.60;1.00;;;;;;5052973;28;20178;-64
2023/02/16 09:33:36;;;;;;;15.50;11.83;;;10.50;1.00;;;;;;5053487;28;20230;-64
2023/02/16 09:36:06;;;;;;;14.87;11.57;;;10.60;1.00;;;;;;5053202;28;20191;-64
2023/02/16 09:38:32;;;;;;;17.80;10.60;;;10.70;1.00;;;;;;5053630;28;20183;-64
2023/02/16 09:41:04;;;;;;;12.40;10.70;;;10.60;1.00;;;;;;5052988;28;20262;-64
2023/02/16 09:43:48;;;;;;;15.03;11.53;;;10.30;1.00;;;;;;5053263;28;20199;-64
2023/02/16 09:46:18;;;;;;;16.50;11.40;;;9.90;1.00;;;;;;5052983;28;20675;-64
2023/02/16 09:48:48;;;;;;;16.00;11.30;;;9.60;1.00;;;;;;5053119;28;20186;-64
2023/02/16 09:51:22;;;;;;;12.70;11.20;;;9.30;1.00;;;;;;5052621;28;20171;-64
2023/02/16 09:54:02;;;;;;;15.63;12.27;;;9.20;1.00;;;;;;5053057;28;20174;-64
2023/02/16 09:56:39;;;;;;;17.70;14.33;;;9.20;1.00;;;;;;5053114;28;20559;-64
2023/02/16 09:59:17;;;;;;;18.23;13.30;;;9.20;1.00;;;;;;5051655;28;20627;-63
2023/02/16 10:01:51;;;;;;;22.83;11.93;;;9.20;1.00;;;;;;5052299;28;20228;-64
2023/02/16 10:04:47;;;;;;;17.57;12.43;;;9.20;1.00;;;;;;5052729;28;20202;-64
2023/02/16 10:07:41;;;;;;;18.43;12.43;;;9.20;1.00;;;;;;5052599;28;20187;-64
2023/02/16 10:10:09;;;;;;;18.80;11.40;;;9.20;1.00;;;;;;5052311;28;20564;-64
2023/02/16 10:12:49;;;;;;;13.97;11.83;;;9.20;1.00;;;;;;5052772;28;20629;-64
2023/02/16 10:15:21;;;;;;;14.87;11.93;;;9.10;1.00;;;;;;5052343;28;20174;-64
2023/02/16 10:17:53;;;;;;;12.70;11.50;;;8.90;1.00;;;;;;5052523;28;20171;-64
2023/02/16 10:20:41;;;;;;;19.43;13.60;;;8.80;1.00;;;;;;5052568;28;20171;-63
2023/02/16 10:23:36;;;;;;;16.87;12.63;;;8.70;1.00;;;;;;5051008;28;20214;-64
2023/02/16 10:26:29;;;;;;;27.13;14.97;;;8.50;99.90;;;;;;5052221;28;20237;-63
2023/02/16 10:28:58;;;;;;;21.20;13.93;;;8.50;99.90;;;;;;5052241;28;20181;-64
2023/02/16 10:31:56;;;;;;;26.03;14.57;;;8.50;99.90;;;;;;5051423;28;20716;-63
2023/02/16 10:34:45;;;;;;;17.73;13.50;;;8.50;99.90;;;;;;5052303;28;20185;-64
2023/02/16 10:37:45;;;;;;;17.77;12.63;;;8.40;99.90;;;;;;5051962;28;20195;-63
2023/02/16 10:40:35;;;;;;;16.93;14.17;;;8.40;1.00;;;;;;5052041;28;20258;-64
2023/02/16 10:43:38;;;;;;;23.33;13.73;;;8.50;25.40;;;;;;5051964;28;20272;-64
2023/02/16 10:46:04;;;;;;;19.03;13.33;;;8.60;1.00;;;;;;5039015;28;20695;-64
2023/02/16 10:48:31;;;;;;;18.03;14.23;;;8.60;1.00;;;;;;5052475;28;20258;-64
2023/02/16 10:51:17;;;;;;;19.30;13.37;;;8.70;1.00;;;;;;5051685;28;20250;-64
2023/02/16 10:53:51;;;;;;;15.90;12.43;;;8.80;1.00;;;;;;5051984;28;20182;-64
2023/02/16 10:56:35;;;;;;;18.23;15.23;;;8.80;99.90;;;;;;5052029;28;20191;-66
2023/02/16 10:59:12;;;;;;;16.37;12.90;;;8.80;1.00;;;;;;5051714;28;20253;-63
2023/02/16 11:01:43;;;;;;;17.43;14.40;;;8.90;1.00;;;;;;5051033;28;20170;-64
2023/02/16 11:04:40;;;;;;;16.70;13.07;;;8.90;1.00;;;;;;5051798;28;20203;-64
2023/02/16 11:07:15;;;;;;;18.73;14.77;;;9.00;99.90;;;;;;5051602;28;20214;-64
2023/02/16 11:09:42;;;;;;;18.70;13.63;;;9.10;99.90;;;;;;5051415;28;20540;-64
2023/02/16 11:12:22;;;;;;;17.93;12.57;;;9.20;99.90;;;;;;5051598;28;20175;-64
2023/02/16 11:14:51;;;;;;;16.27;12.23;;;9.30;99.90;;;;;;5051882;28;20644;-64
2023/02/16 11:17:19;;;;;;;20.43;14.70;;;9.50;99.90;;;;;;5051528;28;20186;-64
2023/02/16 11:19:52;;;;;;;13.27;11.50;;;9.70;93.40;;;;;;5051063;28;20187;-64
2023/02/16 11:22:37;;;;;;;15.80;12.43;;;9.90;1.00;;;;;;5051645;28;20185;-64
2023/02/16 11:25:20;;;;;;;16.10;13.50;;;10.10;1.00;;;;;;5051565;28;20196;-64
2023/02/16 11:27:54;;;;;;;16.17;12.40;;;10.30;1.00;;;;;;5051460;28;20205;-64
2023/02/16 11:30:41;;;;;;;20.13;12.43;;;10.60;1.00;;;;;;5051269;28;20266;-64
2023/02/16 11:33:28;;;;;;;19.47;12.37;;;10.90;1.00;;;;;;5051433;28;20170;-64
2023/02/16 11:35:55;;;;;;;15.67;12.77;;;11.00;1.00;;;;;;5051255;28;20597;-64
2023/02/16 11:38:34;;;;;;;18.23;12.07;;;11.10;1.00;;;;;;5051358;28;20174;-64
2023/02/16 11:41:02;;;;;;;18.60;12.27;;;11.10;1.00;;;;;;5050954;28;20257;-64
2023/02/16 11:43:31;;;;;;;15.43;11.43;;;11.00;1.00;;;;;;5055264;28;20317;-64
2023/02/16 11:46:20;;;;;;;16.47;12.73;;;10.90;1.00;;;;;;5055166;28;20264;-63
2023/02/16 11:48:47;;;;;;;16.60;13.20;;;10.70;1.00;;;;;;5055250;28;20173;-64
2023/02/16 11:51:29;;;;;;;19.07;13.17;;;10.60;1.00;;;;;;5053879;28;20170;-63
2023/02/16 11:54:01;;;;;;;21.90;14.43;;;10.50;36.10;;;;;;5055228;28;20193;-63
2023/02/16 11:56:32;;;;;;;19.13;13.57;;;10.50;7.90;;;;;;5055232;28;20198;-64
2023/02/16 11:59:14;;;;;;;17.60;13.37;;;10.50;6.90;;;;;;5055108;28;20224;-64
2023/02/16 12:02:18;;;;;;;14.90;13.37;;;10.40;3.80;;;;;;5055235;28;20256;-64
2023/02/16 12:05:07;;;;;;;19.07;13.63;;;10.40;95.00;;;;;;5024303;28;20222;-64
2023/02/16 12:08:02;;;;;;;15.63;12.13;;;10.40;98.20;;;;;;5054893;28;20241;-64
2023/02/16 12:10:38;;;;;;;19.27;13.70;;;10.40;88.90;;;;;;5054523;28;20193;-64
2023/02/16 12:13:32;;;;;;;17.03;13.40;;;10.40;99.90;;;;;;5054781;28;20178;-64
2023/02/16 12:16:15;;;;;;;17.30;13.57;;;10.50;99.90;;;;;;5054740;28;20199;-64
2023/02/16 12:19:16;;;;;;;16.60;12.93;;;10.70;1.00;;;;;;5055184;28;20212;-63
2023/02/16 12:21:53;;;;;;;16.20;12.70;;;10.70;1.00;;;;;;5021763;28;20195;-64
2023/02/16 12:24:52;;;;;;;16.47;13.10;;;10.90;1.00;;;;;;5054696;28;20202;-64
2023/02/16 12:27:20;;;;;;;18.43;13.03;;;10.90;1.00;;;;;;5054466;28;20241;-64
2023/02/16 12:30:01;;;;;;;17.67;13.50;;;11.00;1.00;;;;;;5054201;28;20171;-63
2023/02/16 12:32:45;;;;;;;21.10;13.87;;;11.00;1.00;;;;;;5054775;28;20596;-64
2023/02/16 12:35:29;;;;;;;15.20;12.03;;;11.00;1.00;;;;;;5054559;28;20447;-64
2023/02/16 12:38:01;;;;;;;22.30;13.60;;;11.00;1.00;;;;;;5054441;28;20178;-64
2023/02/16 12:40:44;;;;;;;15.43;11.53;;;10.90;1.00;;;;;;5054208;28;20246;-64
2023/02/16 12:43:35;;;;;;;21.57;13.67;;;10.90;1.00;;;;;;5054273;28;20206;-63
2023/02/16 12:46:09;;;;;;;15.30;11.83;;;10.90;35.50;;;;;;5054022;28;20664;-64
2023/02/16 12:48:41;;;;;;;14.00;11.57;;;10.90;84.80;;;;;;5054152;28;20646;-63
2023/02/16 12:51:17;;;;;;;16.30;12.10;;;10.90;99.90;;;;;;5053795;28;20254;-63
2023/02/16 12:54:01;;;;;;;23.07;13.30;;;10.90;99.90;;;;;;5053234;28;20178;-63
2023/02/16 12:56:58;;;;;;;17.03;12.63;;;10.90;99.90;;;;;;5053986;28;20205;-63
2023/02/16 13:00:01;;;;;;;16.10;12.90;;;10.90;99.90;;;;;;5053711;28;20178;-63
2023/02/16 13:02:46;;;;;;;15.20;13.23;;;10.90;99.90;;;;;;5053936;28;20178;-62
2023/02/16 13:05:30;;;;;;;18.03;12.27;;;10.90;99.90;;;;;;5053786;28;20182;-65
2023/02/16 13:08:06;;;;;;;19.43;12.57;;;10.80;1.00;;;;;;5053877;28;20522;-63
2023/02/16 13:10:38;;;;;;;16.10;13.33;;;10.90;99.90;;;;;;5053739;28;20265;-65
2023/02/16 13:13:16;;;;;;;18.47;14.00;;;10.90;99.90;;;;;;5053777;28;20262;-62
2023/02/16 13:16:15;;;;;;;15.13;11.97;;;10.90;1.00;;;;;;5053696;28;20663;-62
2023/02/16 13:18:43;;;;;;;15.27;12.80;;;10.90;1.00;;;;;;5053555;28;20171;-65
2023/02/16 13:21:32;;;;;;;16.83;13.17;;;10.90;90.20;;;;;;5053231;28;20167;-65
2023/02/16 13:24:12;;;;;;;20.77;12.97;;;11.10;26.80;;;;;;5012478;28;20226;-65
2023/02/16 13:26:43;;;;;;;16.37;13.60;;;11.20;99.90;;;;;;5053666;28;20205;-65
2023/02/16 13:29:22;;;;;;;16.50;14.57;;;11.40;1.00;;;;;;5053089;28;20189;-64
2023/02/16 13:32:04;;;;;;;17.23;12.40;;;11.60;99.90;;;;;;5053351;28;20170;-64
2023/02/16 13:34:39;;;;;;;15.70;12.77;;;11.80;99.90;;;;;;5053482;28;20170;-65
2023/02/16 13:37:12;;;;;;;17.03;13.87;;;11.90;99.90;;;;;;5053175;28;20573;-64
2023/02/16 13:40:03;;;;;;;17.23;14.00;;;12.10;1.00;;;;;;5053048;28;20259;-64
2023/02/16 13:42:29;;;;;;;17.80;13.00;;;12.30;1.00;;;;;;5053558;28;20202;-65
2023/02/16 13:45:00;;;;;;;21.70;14.20;;;12.50;1.00;;;;;;5053158;28;20175;-65